createdAt,value
2019-02-02T00:00:09.158Z,97.60
2019-02-02T00:02:43.853Z,97.50
2019-02-02T00:05:16.888Z,97.50
2019-02-02T00:07:49.963Z,97.50
2019-02-02T00:10:22.898Z,97.50
2019-02-02T00:12:56.078Z,97.50
2019-02-02T00:15:29.097Z,97.50
2019-02-02T00:18:01.888Z,97.60
2019-02-02T00:20:34.832Z,97.60
2019-02-02T00:23:07.686Z,97.70
2019-02-02T00:25:40.647Z,97.80
2019-02-02T00:28:13.692Z,97.70
2019-02-02T00:30:46.594Z,97.70
2019-02-02T00:33:19.464Z,97.90
2019-02-02T00:35:52.269Z,97.80
2019-02-02T00:38:25.185Z,97.60
2019-02-02T00:40:58.032Z,97.70
2019-02-02T00:43:30.855Z,97.90
2019-02-02T00:46:03.917Z,98.60
2019-02-02T00:48:36.695Z,98.20
2019-02-02T00:51:09.612Z,98.20
2019-02-02T00:53:42.502Z,98.40
2019-02-02T00:56:15.509Z,98.20
2019-02-02T00:58:48.498Z,98.60
2019-02-02T01:01:21.298Z,98.30
2019-02-02T01:03:55.153Z,98.40
2019-02-02T01:06:28.080Z,98.50
2019-02-02T01:09:01.050Z,98.50
2019-02-02T01:11:35.774Z,98.60
2019-02-02T01:14:08.608Z,98.70
2019-02-02T01:16:41.358Z,98.40
2019-02-02T01:19:14.438Z,98.60
2019-02-02T01:21:47.474Z,98.70
2019-02-02T01:24:20.283Z,98.80
2019-02-02T01:26:53.198Z,99.10
2019-02-02T01:29:25.946Z,98.90
2019-02-02T01:31:59.006Z,99.40
2019-02-02T01:34:31.851Z,99.30
2019-02-02T01:37:04.835Z,99.40
2019-02-02T01:39:37.689Z,99.50
2019-02-02T01:42:10.573Z,99.30
2019-02-02T01:44:43.435Z,99.40
2019-02-02T01:47:16.394Z,99.50
2019-02-02T01:49:49.254Z,99.40
2019-02-02T01:52:22.165Z,99.80
2019-02-02T01:54:55.118Z,99.80
2019-02-02T01:57:27.855Z,99.50
2019-02-02T02:00:00.782Z,99.30
2019-02-02T02:02:33.501Z,99.30
2019-02-02T02:05:06.259Z,99.40
2019-02-02T02:07:39.495Z,99.50
2019-02-02T02:10:13.241Z,99.50
2019-02-02T02:12:45.989Z,99.40
2019-02-02T02:15:18.894Z,99.40
2019-02-02T02:17:51.795Z,99.20
2019-02-02T02:20:24.604Z,99.30
2019-02-02T02:22:57.529Z,99.40
2019-02-02T02:25:30.259Z,99.50
2019-02-02T02:28:02.984Z,99.60
2019-02-02T02:30:35.980Z,99.40
2019-02-02T02:33:08.954Z,99.60
2019-02-02T02:35:41.965Z,99.90
2019-02-02T02:38:14.929Z,99.90
2019-02-02T02:40:47.980Z,99.90
2019-02-02T02:43:20.835Z,99.90
2019-02-02T02:45:53.661Z,99.90
2019-02-02T02:48:26.649Z,99.90
2019-02-02T02:50:59.395Z,99.90
2019-02-02T02:53:32.315Z,99.90
2019-02-02T02:56:05.209Z,99.80
2019-02-02T02:58:41.642Z,99.90
2019-02-02T03:01:12.783Z,99.90
2019-02-02T03:03:45.658Z,99.90
2019-02-02T03:06:18.562Z,99.90
2019-02-02T03:08:51.475Z,99.90
2019-02-02T03:11:24.457Z,99.90
2019-02-02T03:13:57.369Z,99.90
2019-02-02T03:16:30.248Z,99.90
2019-02-02T03:19:03.226Z,99.90
2019-02-02T03:21:36.061Z,99.90
2019-02-02T03:24:08.829Z,99.90
2019-02-02T03:26:41.585Z,99.90
2019-02-02T03:29:14.514Z,99.90
2019-02-02T03:31:48.672Z,99.90
2019-02-02T03:34:21.816Z,99.90
2019-02-02T03:36:54.922Z,99.90
2019-02-02T03:39:27.704Z,99.90
2019-02-02T03:42:00.535Z,99.90
2019-02-02T03:44:33.470Z,99.90
2019-02-02T03:47:06.392Z,99.90
2019-02-02T03:49:39.201Z,99.90
2019-02-02T03:52:11.916Z,99.90
2019-02-02T03:54:45.001Z,99.90
2019-02-02T03:57:17.789Z,99.90
2019-02-02T03:59:50.651Z,99.90
2019-02-02T04:02:23.469Z,99.90
2019-02-02T04:04:56.320Z,99.90
2019-02-02T04:07:29.401Z,99.90
2019-02-02T04:10:02.630Z,99.90
2019-02-02T04:12:35.745Z,99.90
2019-02-02T04:15:09.197Z,99.90
2019-02-02T04:17:41.987Z,99.90
2019-02-02T04:20:19.208Z,99.90
2019-02-02T04:22:52.207Z,99.90
2019-02-02T04:25:25.128Z,99.90
2019-02-02T04:27:57.925Z,99.90
2019-02-02T04:30:30.769Z,99.90
2019-02-02T04:33:03.863Z,99.90
2019-02-02T04:35:36.902Z,99.90
2019-02-02T04:38:09.789Z,99.90
2019-02-02T04:40:42.645Z,99.90
2019-02-02T04:43:15.417Z,99.90
2019-02-02T04:45:48.212Z,99.90
2019-02-02T04:48:21.091Z,99.90
2019-02-02T04:50:53.922Z,99.90
2019-02-02T04:53:26.696Z,99.90
2019-02-02T04:55:59.573Z,99.90
2019-02-02T04:58:32.806Z,99.90
2019-02-02T05:01:05.888Z,99.90
2019-02-02T05:03:38.837Z,99.90
2019-02-02T05:06:11.743Z,99.90
2019-02-02T05:08:44.758Z,99.90
2019-02-02T05:11:17.568Z,99.90
2019-02-02T05:13:50.486Z,99.90
2019-02-02T05:16:23.563Z,99.90
2019-02-02T05:18:56.553Z,99.90
2019-02-02T05:21:29.411Z,99.90
2019-02-02T05:24:03.142Z,99.90
2019-02-02T05:26:36.107Z,99.90
2019-02-02T05:29:08.926Z,99.90
2019-02-02T05:31:41.652Z,99.90
2019-02-02T05:34:14.552Z,99.90
2019-02-02T05:36:47.682Z,99.90
2019-02-02T05:39:20.746Z,99.90
2019-02-02T05:41:53.760Z,99.90
2019-02-02T05:44:26.697Z,99.90
2019-02-02T05:46:59.458Z,99.90
2019-02-02T05:49:33.446Z,99.90
2019-02-02T05:52:06.224Z,99.90
2019-02-02T05:54:38.983Z,99.90
2019-02-02T05:57:11.893Z,99.90
2019-02-02T05:59:52.438Z,99.90
2019-02-02T06:02:19.873Z,99.90
2019-02-02T06:04:52.837Z,99.90
2019-02-02T06:07:25.858Z,99.90
2019-02-02T06:09:58.870Z,99.90
2019-02-02T06:12:31.582Z,99.90
2019-02-02T06:15:05.333Z,99.90
2019-02-02T06:17:38.095Z,99.90
2019-02-02T06:20:11.397Z,99.90
2019-02-02T06:22:44.248Z,99.90
2019-02-02T06:25:17.160Z,99.90
2019-02-02T06:27:50.002Z,99.90
2019-02-02T06:30:23.238Z,99.90
2019-02-02T06:32:56.310Z,99.90
2019-02-02T06:35:29.313Z,99.90
2019-02-02T06:38:02.381Z,99.90
2019-02-02T06:40:35.325Z,99.90
2019-02-02T06:43:08.335Z,99.90
2019-02-02T06:45:41.288Z,99.90
2019-02-02T06:48:14.187Z,99.90
2019-02-02T06:50:46.971Z,99.90
2019-02-02T06:53:20.020Z,99.90
2019-02-02T06:55:52.877Z,99.90
2019-02-02T06:58:25.720Z,99.90
2019-02-02T07:00:58.694Z,99.90
2019-02-02T07:03:31.660Z,99.90
2019-02-02T07:06:04.954Z,99.90
2019-02-02T07:08:37.769Z,99.90
2019-02-02T07:11:10.857Z,99.90
2019-02-02T07:13:43.625Z,99.90
2019-02-02T07:16:16.563Z,99.90
2019-02-02T07:18:49.314Z,99.90
2019-02-02T07:21:23.199Z,99.90
2019-02-02T07:23:56.233Z,99.90
2019-02-02T07:26:29.068Z,99.90
2019-02-02T07:29:01.943Z,99.90
2019-02-02T07:31:35.005Z,99.90
2019-02-02T07:34:07.919Z,99.90
2019-02-02T07:36:40.732Z,99.90
2019-02-02T07:39:13.805Z,99.90
2019-02-02T07:41:46.865Z,99.90
2019-02-02T07:44:19.953Z,99.90
2019-02-02T07:46:52.764Z,99.90
2019-02-02T07:49:25.498Z,99.90
2019-02-02T07:51:58.318Z,99.90
2019-02-02T07:54:33.048Z,99.90
2019-02-02T07:57:05.921Z,99.90
2019-02-02T07:59:38.655Z,99.90
2019-02-02T08:02:11.550Z,99.90
2019-02-02T08:04:44.518Z,99.90
2019-02-02T08:07:18.349Z,99.90
2019-02-02T08:09:51.293Z,99.90
2019-02-02T08:12:24.381Z,99.90
2019-02-02T08:14:57.469Z,99.90
2019-02-02T08:17:32.414Z,99.90
2019-02-02T08:20:06.934Z,99.90
2019-02-02T08:22:39.735Z,99.90
2019-02-02T08:25:13.210Z,99.90
2019-02-02T08:27:46.311Z,99.90
2019-02-02T08:30:21.154Z,99.90
2019-02-02T08:32:54.205Z,99.90
2019-02-02T08:35:27.288Z,99.90
2019-02-02T08:38:00.384Z,99.90
2019-02-02T08:40:33.344Z,99.90
2019-02-02T08:43:06.319Z,99.90
2019-02-02T08:45:39.239Z,99.90
2019-02-02T08:48:12.310Z,99.90
2019-02-02T08:50:45.191Z,99.90
2019-02-02T08:53:18.197Z,99.90
2019-02-02T08:55:51.995Z,99.90
2019-02-02T08:58:25.461Z,99.90
2019-02-02T09:01:04.332Z,99.90
2019-02-02T09:03:33.487Z,99.90
2019-02-02T09:06:07.422Z,99.90
2019-02-02T09:08:40.361Z,99.90
2019-02-02T09:11:13.331Z,99.90
2019-02-02T09:13:46.663Z,99.90
2019-02-02T09:16:19.620Z,99.90
2019-02-02T09:18:52.572Z,99.90
2019-02-02T09:21:25.395Z,99.90
2019-02-02T09:23:58.531Z,99.90
2019-02-02T09:26:31.441Z,99.90
2019-02-02T09:29:04.281Z,99.90
2019-02-02T09:31:37.356Z,99.90
2019-02-02T09:34:10.401Z,99.90
2019-02-02T09:36:43.190Z,99.90
2019-02-02T09:39:16.031Z,99.90
2019-02-02T09:41:48.887Z,99.90
2019-02-02T09:44:21.863Z,99.90
2019-02-02T09:46:54.968Z,99.90
2019-02-02T09:49:28.025Z,99.90
2019-02-02T09:52:00.814Z,99.90
2019-02-02T09:54:33.769Z,99.90
2019-02-02T09:57:06.925Z,99.90
2019-02-02T09:59:39.736Z,99.90
2019-02-02T10:02:12.531Z,99.90
2019-02-02T10:04:45.467Z,99.90
2019-02-02T10:07:18.401Z,99.90
2019-02-02T10:09:51.326Z,99.90
2019-02-02T10:12:24.161Z,99.90
2019-02-02T10:14:57.065Z,99.90
2019-02-02T10:17:30.111Z,99.90
2019-02-02T10:20:03.917Z,99.90
2019-02-02T10:22:36.992Z,99.90
2019-02-02T10:25:11.286Z,99.90
2019-02-02T10:27:44.383Z,99.90
2019-02-02T10:30:22.837Z,99.90
2019-02-02T10:32:55.922Z,99.90
2019-02-02T10:35:28.806Z,99.90
2019-02-02T10:38:01.810Z,99.90
2019-02-02T10:40:34.721Z,99.90
2019-02-02T10:43:08.094Z,99.90
2019-02-02T10:45:41.211Z,99.90
2019-02-02T10:48:14.126Z,99.90
2019-02-02T10:50:47.189Z,99.90
2019-02-02T10:53:20.237Z,99.40
2019-02-02T10:55:52.977Z,99.80
2019-02-02T10:58:25.749Z,99.60
2019-02-02T11:00:58.809Z,99.80
2019-02-02T11:03:31.943Z,99.40
2019-02-02T11:06:05.124Z,99.50
2019-02-02T11:08:38.193Z,98.60
2019-02-02T11:11:11.088Z,98.70
2019-02-02T11:13:44.164Z,98.80
2019-02-02T11:16:17.111Z,98.90
2019-02-02T11:18:49.959Z,98.90
2019-02-02T11:21:23.083Z,98.70
2019-02-02T11:23:56.121Z,98.70
2019-02-02T11:26:29.053Z,98.80
2019-02-02T11:29:02.222Z,98.90
2019-02-02T11:31:35.270Z,98.70
2019-02-02T11:34:08.187Z,98.40
2019-02-02T11:36:43.804Z,98.40
2019-02-02T11:39:16.041Z,98.50
2019-02-02T11:41:48.974Z,99.20
2019-02-02T11:44:21.762Z,98.70
2019-02-02T11:46:54.650Z,98.70
2019-02-02T11:49:27.527Z,98.60
2019-02-02T11:52:01.332Z,99.60
2019-02-02T11:54:34.388Z,99.90
2019-02-02T11:57:07.340Z,99.90
2019-02-02T11:59:40.417Z,99.90
2019-02-02T12:02:14.909Z,99.90
2019-02-02T12:04:47.999Z,99.90
2019-02-02T12:07:21.154Z,99.90
2019-02-02T12:09:53.958Z,99.90
2019-02-02T12:12:27.037Z,99.90
2019-02-02T12:14:59.815Z,99.90
2019-02-02T12:17:32.677Z,99.90
2019-02-02T12:20:06.909Z,99.90
2019-02-02T12:22:39.993Z,99.90
2019-02-02T12:25:13.970Z,99.90
2019-02-02T12:27:47.215Z,99.90
2019-02-02T12:30:28.223Z,99.90
2019-02-02T12:33:03.391Z,99.90
2019-02-02T12:35:35.708Z,99.90
2019-02-02T12:38:08.975Z,99.90
2019-02-02T12:40:41.788Z,99.90
2019-02-02T12:43:14.907Z,99.90
2019-02-02T12:45:50.494Z,99.90
2019-02-02T12:48:23.414Z,99.90
2019-02-02T12:50:56.515Z,99.90
2019-02-02T12:53:29.687Z,99.90
2019-02-02T12:56:02.814Z,99.90
2019-02-02T12:58:35.941Z,99.90
2019-02-02T13:01:08.796Z,99.90
2019-02-02T13:03:41.552Z,99.90
2019-02-02T13:06:14.556Z,99.90
2019-02-02T13:08:47.763Z,99.90
2019-02-02T13:11:20.637Z,99.90
2019-02-02T13:13:53.418Z,99.90
2019-02-02T13:16:26.235Z,99.90
2019-02-02T13:18:59.525Z,99.90
2019-02-02T13:21:32.267Z,99.90
2019-02-02T13:24:05.339Z,99.90
2019-02-02T13:26:38.425Z,99.90
2019-02-02T13:29:11.689Z,99.90
2019-02-02T13:31:44.671Z,99.90
2019-02-02T13:34:17.792Z,99.90
2019-02-02T13:36:50.781Z,99.90
2019-02-02T13:39:23.888Z,99.90
2019-02-02T13:41:56.965Z,99.90
2019-02-02T13:44:30.139Z,99.60
2019-02-02T13:47:03.040Z,99.90
2019-02-02T13:49:35.899Z,99.90
2019-02-02T13:52:08.840Z,99.90
2019-02-02T13:54:41.824Z,99.90
2019-02-02T13:57:14.948Z,99.90
2019-02-02T13:59:47.950Z,99.90
2019-02-02T14:02:20.730Z,99.90
2019-02-02T14:04:53.745Z,99.90
2019-02-02T14:07:26.755Z,99.90
2019-02-02T14:09:59.634Z,99.90
2019-02-02T14:12:32.574Z,99.90
2019-02-02T14:15:06.371Z,99.90
2019-02-02T14:17:39.348Z,99.90
2019-02-02T14:20:12.468Z,99.90
2019-02-02T14:22:45.510Z,99.90
2019-02-02T14:25:18.380Z,99.90
2019-02-02T14:27:51.382Z,99.90
2019-02-02T14:30:24.957Z,99.90
2019-02-02T14:32:57.708Z,99.90
2019-02-02T14:35:30.796Z,99.90
2019-02-02T14:38:03.797Z,99.90
2019-02-02T14:40:36.875Z,99.90
2019-02-02T14:43:09.817Z,99.90
2019-02-02T14:45:43.064Z,99.90
2019-02-02T14:48:16.045Z,99.90
2019-02-02T14:50:49.037Z,99.90
2019-02-02T14:53:22.062Z,99.90
2019-02-02T14:55:55.026Z,99.90
2019-02-02T14:58:28.330Z,99.90
2019-02-02T15:01:01.271Z,99.90
2019-02-02T15:03:34.592Z,99.90
2019-02-02T15:06:09.606Z,99.90
2019-02-02T15:08:42.587Z,99.90
2019-02-02T15:11:15.594Z,99.90
2019-02-02T15:13:48.544Z,99.90
2019-02-02T15:16:21.456Z,99.90
2019-02-02T15:18:54.298Z,99.90
2019-02-02T15:21:27.355Z,99.90
2019-02-02T15:24:00.097Z,99.90
2019-02-02T15:26:33.064Z,99.90
2019-02-02T15:29:06.047Z,99.90
2019-02-02T15:31:39.022Z,99.90
2019-02-02T15:34:11.811Z,99.90
2019-02-02T15:36:44.752Z,99.90
2019-02-02T15:39:17.628Z,99.90
2019-02-02T15:41:53.018Z,99.90
2019-02-02T15:44:25.348Z,99.90
2019-02-02T15:46:58.216Z,99.90
2019-02-02T15:49:31.362Z,99.90
2019-02-02T15:52:04.223Z,99.90
2019-02-02T15:54:37.187Z,99.90
2019-02-02T15:57:11.007Z,99.90
2019-02-02T15:59:43.807Z,99.90
2019-02-02T16:02:16.869Z,99.90
2019-02-02T16:04:49.779Z,99.90
2019-02-02T16:07:22.710Z,99.90
2019-02-02T16:09:55.606Z,99.90
2019-02-02T16:12:28.749Z,99.90
2019-02-02T16:15:01.642Z,99.90
2019-02-02T16:17:34.890Z,99.90
2019-02-02T16:20:11.652Z,99.90
2019-02-02T16:22:44.413Z,99.90
2019-02-02T16:25:17.604Z,99.90
2019-02-02T16:27:50.437Z,99.90
2019-02-02T16:30:24.583Z,99.90
2019-02-02T16:32:57.603Z,99.90
2019-02-02T16:35:30.486Z,99.90
2019-02-02T16:38:03.411Z,99.90
2019-02-02T16:40:36.281Z,99.90
2019-02-02T16:43:09.161Z,99.90
2019-02-02T16:45:42.221Z,99.90
2019-02-02T16:48:15.243Z,99.90
2019-02-02T16:50:48.261Z,99.00
2019-02-02T16:53:21.855Z,99.00
2019-02-02T16:55:55.066Z,98.90
2019-02-02T16:58:27.952Z,98.50
2019-02-02T17:01:00.970Z,98.60
2019-02-02T17:03:34.060Z,99.00
2019-02-02T17:06:06.939Z,98.90
2019-02-02T17:08:40.011Z,99.00
2019-02-02T17:11:13.054Z,98.90
2019-02-02T17:13:45.930Z,99.10
2019-02-02T17:16:18.902Z,99.00
2019-02-02T17:18:51.845Z,99.40
2019-02-02T17:21:24.652Z,99.80
2019-02-02T17:23:57.596Z,99.10
2019-02-02T17:26:30.597Z,99.70
2019-02-02T17:29:03.692Z,99.00
2019-02-02T17:31:36.867Z,99.40
2019-02-02T17:34:10.002Z,99.10
2019-02-02T17:36:42.864Z,99.40
2019-02-02T17:39:15.793Z,99.40
2019-02-02T17:41:48.578Z,99.10
2019-02-02T17:44:21.467Z,99.40
2019-02-02T17:46:54.283Z,99.40
2019-02-02T17:49:27.358Z,99.30
2019-02-02T17:52:00.229Z,99.30
2019-02-02T17:54:33.185Z,99.20
2019-02-02T17:57:07.657Z,99.20
2019-02-02T17:59:40.434Z,99.50
2019-02-02T18:02:13.217Z,99.20
2019-02-02T18:04:46.137Z,99.40
2019-02-02T18:07:19.052Z,99.40
2019-02-02T18:09:51.814Z,99.20
2019-02-02T18:12:24.673Z,98.90
2019-02-02T18:14:57.709Z,99.20
2019-02-02T18:17:30.534Z,99.70
2019-02-02T18:20:04.823Z,99.50
2019-02-02T18:22:37.833Z,99.40
2019-02-02T18:25:11.928Z,99.40
2019-02-02T18:27:45.815Z,99.50
2019-02-02T18:30:19.383Z,99.90
2019-02-02T18:32:52.307Z,99.70
2019-02-02T18:35:25.442Z,99.60
2019-02-02T18:37:58.219Z,99.70
2019-02-02T18:40:31.143Z,99.80
2019-02-02T18:43:04.216Z,99.80
2019-02-02T18:45:37.041Z,99.60
2019-02-02T18:48:09.857Z,99.80
2019-02-02T18:50:42.902Z,99.70
2019-02-02T18:53:15.913Z,99.90
2019-02-02T18:55:55.703Z,99.50
2019-02-02T18:58:28.809Z,99.50
2019-02-02T19:01:01.903Z,99.90
2019-02-02T19:03:36.115Z,99.80
2019-02-02T19:06:09.164Z,99.80
2019-02-02T19:08:42.188Z,99.60
2019-02-02T19:11:15.045Z,99.60
2019-02-02T19:13:48.107Z,99.60
2019-02-02T19:16:20.863Z,99.90
2019-02-02T19:18:53.791Z,99.90
2019-02-02T19:21:26.691Z,99.90
2019-02-02T19:23:59.950Z,99.90
2019-02-02T19:26:32.898Z,99.80
2019-02-02T19:29:05.853Z,99.90
2019-02-02T19:31:38.879Z,99.90
2019-02-02T19:34:11.960Z,99.90
2019-02-02T19:36:44.799Z,99.90
2019-02-02T19:39:17.698Z,99.90
2019-02-02T19:41:50.669Z,99.90
2019-02-02T19:44:23.522Z,99.90
2019-02-02T19:46:56.564Z,99.90
2019-02-02T19:49:29.500Z,99.90
2019-02-02T19:52:02.646Z,99.90
2019-02-02T19:54:35.670Z,99.90
2019-02-02T19:57:08.905Z,99.90
2019-02-02T19:59:41.824Z,99.90
2019-02-02T20:02:14.840Z,99.90
2019-02-02T20:04:47.761Z,99.90
2019-02-02T20:07:20.691Z,99.90
2019-02-02T20:09:53.734Z,99.90
2019-02-02T20:12:26.666Z,99.90
2019-02-02T20:14:59.745Z,99.90
2019-02-02T20:17:32.687Z,99.90
2019-02-02T20:20:08.334Z,99.90
2019-02-02T20:22:41.294Z,99.90
2019-02-02T20:25:14.196Z,99.90
2019-02-02T20:27:47.043Z,99.90
2019-02-02T20:30:22.020Z,99.90
2019-02-02T20:32:54.785Z,99.90
2019-02-02T20:35:39.810Z,99.90
2019-02-02T20:38:02.497Z,99.90
2019-02-02T20:40:35.362Z,99.90
2019-02-02T20:43:08.201Z,99.90
2019-02-02T20:45:41.245Z,99.90
2019-02-02T20:48:14.187Z,99.90
2019-02-02T20:50:47.059Z,99.90
2019-02-02T20:53:20.657Z,99.90
2019-02-02T20:55:53.706Z,99.90
2019-02-02T20:58:26.560Z,99.90
2019-02-02T21:00:59.333Z,99.90
2019-02-02T21:03:32.167Z,99.90
2019-02-02T21:06:05.075Z,99.90
2019-02-02T21:08:38.395Z,99.90
2019-02-02T21:11:11.335Z,99.90
2019-02-02T21:13:44.146Z,99.90
2019-02-02T21:16:17.402Z,99.90
2019-02-02T21:18:50.390Z,99.90
2019-02-02T21:21:23.561Z,99.90
2019-02-02T21:23:56.437Z,99.90
2019-02-02T21:26:29.403Z,99.90
2019-02-02T21:29:02.198Z,99.90
2019-02-02T21:31:35.088Z,99.90
2019-02-02T21:34:09.105Z,99.90
2019-02-02T21:36:42.032Z,99.90
2019-02-02T21:39:15.010Z,99.90
2019-02-02T21:41:47.993Z,99.90
2019-02-02T21:44:20.911Z,99.90
2019-02-02T21:46:53.917Z,99.90
2019-02-02T21:49:26.996Z,99.80
2019-02-02T21:51:59.922Z,99.90
2019-02-02T21:54:33.032Z,99.80
2019-02-02T21:57:06.796Z,99.90
2019-02-02T21:59:39.622Z,99.80
2019-02-02T22:02:12.712Z,99.40
2019-02-02T22:04:45.478Z,99.40
2019-02-02T22:07:18.876Z,99.30
2019-02-02T22:09:51.938Z,99.40
2019-02-02T22:12:24.937Z,99.60
2019-02-02T22:14:57.937Z,99.10
2019-02-02T22:17:31.356Z,99.10
2019-02-02T22:20:05.376Z,99.00
2019-02-02T22:22:38.367Z,99.60
2019-02-02T22:25:13.952Z,99.20
2019-02-02T22:27:47.233Z,98.90
2019-02-02T22:30:22.297Z,99.00
2019-02-02T22:32:55.433Z,99.00
2019-02-02T22:35:28.303Z,99.10
2019-02-02T22:38:01.676Z,98.80
2019-02-02T22:40:34.817Z,99.00
2019-02-02T22:43:07.708Z,99.00
2019-02-02T22:45:40.599Z,98.90
2019-02-02T22:48:13.674Z,99.20
2019-02-02T22:50:46.546Z,99.30
2019-02-02T22:53:19.622Z,99.30
2019-02-02T22:55:52.794Z,99.00
2019-02-02T22:58:25.633Z,99.10
2019-02-02T23:01:12.198Z,99.30
2019-02-02T23:03:49.063Z,99.40
2019-02-02T23:07:04.092Z,99.30
2019-02-02T23:10:33.627Z,99.30
2019-02-02T23:13:43.939Z,99.30
2019-02-02T23:16:29.905Z,99.50
2019-02-02T23:19:03.148Z,99.20
2019-02-02T23:21:35.963Z,99.40
2019-02-02T23:24:08.988Z,99.40
2019-02-02T23:26:41.818Z,99.40
2019-02-02T23:29:14.737Z,99.50
2019-02-02T23:31:47.524Z,99.30
2019-02-02T23:34:20.980Z,99.50
2019-02-02T23:36:55.883Z,99.30
2019-02-02T23:39:28.818Z,99.60
2019-02-02T23:42:01.528Z,99.60
2019-02-02T23:44:34.592Z,99.70
2019-02-02T23:47:07.579Z,99.70
2019-02-02T23:49:41.281Z,99.60
2019-02-02T23:52:14.328Z,99.60
2019-02-02T23:54:47.259Z,99.70
2019-02-02T23:57:20.404Z,99.90
2019-02-02T23:59:53.231Z,99.70
